createdAt,value
2023-01-30T00:01:25.915Z,39.87
2023-01-30T00:03:52.752Z,39.87
2023-01-30T00:06:20.069Z,37.43
2023-01-30T00:08:47.317Z,42.20
2023-01-30T00:11:16.338Z,42.90
2023-01-30T00:13:43.750Z,41.13
2023-01-30T00:16:11.223Z,34.80
2023-01-30T00:18:39.973Z,38.50
2023-01-30T00:21:09.189Z,39.87
2023-01-30T00:23:37.103Z,37.57
2023-01-30T00:26:05.061Z,37.53
2023-01-30T00:28:32.055Z,46.50
2023-01-30T00:30:59.209Z,40.30
2023-01-30T00:33:27.177Z,35.83
2023-01-30T00:35:55.756Z,39.23
2023-01-30T00:38:23.684Z,36.97
2023-01-30T00:40:50.597Z,38.53
2023-01-30T00:43:38.457Z,39.23
2023-01-30T00:46:33.550Z,39.20
2023-01-30T00:49:00.220Z,36.47
2023-01-30T00:51:26.922Z,36.03
2023-01-30T00:53:53.574Z,37.37
2023-01-30T00:56:20.236Z,36.17
2023-01-30T00:58:46.860Z,32.43
2023-01-30T01:01:13.547Z,31.80
2023-01-30T01:03:40.280Z,38.77
2023-01-30T01:06:07.179Z,39.73
2023-01-30T01:08:36.927Z,33.73
2023-01-30T01:11:03.983Z,29.27
2023-01-30T01:13:30.660Z,34.97
2023-01-30T01:15:57.584Z,33.20
2023-01-30T01:18:24.294Z,29.07
2023-01-30T01:20:52.049Z,25.00
2023-01-30T01:23:19.044Z,26.70
2023-01-30T01:25:45.748Z,25.20
2023-01-30T01:28:12.377Z,24.00
2023-01-30T01:30:39.239Z,19.53
2023-01-30T01:33:05.945Z,21.60
2023-01-30T01:35:32.676Z,19.27
2023-01-30T01:37:59.477Z,17.57
2023-01-30T01:40:44.674Z,14.67
2023-01-30T01:43:18.895Z,18.27
2023-01-30T01:45:49.831Z,15.87
2023-01-30T01:48:26.197Z,14.53
2023-01-30T01:51:06.888Z,13.83
2023-01-30T01:53:40.077Z,10.97
2023-01-30T01:56:07.933Z,14.57
2023-01-30T01:58:46.148Z,15.43
2023-01-30T02:01:12.848Z,14.53
2023-01-30T02:03:45.629Z,11.40
2023-01-30T02:06:14.398Z,12.13
2023-01-30T02:08:52.350Z,10.53
2023-01-30T02:11:22.618Z,12.27
2023-01-30T02:13:50.764Z,9.53
2023-01-30T02:16:18.007Z,8.23
2023-01-30T02:18:47.085Z,8.07
2023-01-30T02:21:51.441Z,9.50
2023-01-30T02:24:36.867Z,7.13
2023-01-30T02:27:19.322Z,8.10
2023-01-30T02:30:05.130Z,10.97
2023-01-30T02:32:54.761Z,6.07
2023-01-30T02:35:21.354Z,5.73
2023-01-30T02:37:57.208Z,8.13
2023-01-30T02:40:32.920Z,6.33
2023-01-30T02:43:52.048Z,3.80
2023-01-30T02:46:25.514Z,7.73
2023-01-30T02:49:02.547Z,3.17
2023-01-30T02:51:37.092Z,9.50
2023-01-30T02:54:07.699Z,6.50
2023-01-30T02:56:53.828Z,5.00
2023-01-30T02:59:30.521Z,7.63
2023-01-30T03:01:57.131Z,4.20
2023-01-30T03:04:27.744Z,10.63
2023-01-30T03:07:34.814Z,8.77
2023-01-30T03:10:14.015Z,8.63
2023-01-30T03:13:03.505Z,12.87
2023-01-30T03:15:46.121Z,11.83
2023-01-30T03:18:13.192Z,11.00
2023-01-30T03:20:41.377Z,9.20
2023-01-30T03:23:08.427Z,12.37
2023-01-30T03:25:37.847Z,11.73
2023-01-30T03:28:06.079Z,7.10
2023-01-30T03:30:33.380Z,9.90
2023-01-30T03:33:00.072Z,19.77
2023-01-30T03:35:26.966Z,9.00
2023-01-30T03:37:54.676Z,8.33
2023-01-30T03:40:21.760Z,12.83
2023-01-30T03:42:48.527Z,17.00
2023-01-30T03:45:15.692Z,14.13
2023-01-30T03:47:42.843Z,12.73
2023-01-30T03:50:10.373Z,21.07
2023-01-30T03:52:37.538Z,17.57
2023-01-30T03:55:04.651Z,12.60
2023-01-30T03:57:31.440Z,19.37
2023-01-30T03:59:58.366Z,14.97
2023-01-30T04:02:26.323Z,19.60
2023-01-30T04:04:53.868Z,20.67
2023-01-30T04:07:20.661Z,22.37
2023-01-30T04:09:47.483Z,25.73
2023-01-30T04:12:14.252Z,14.70
2023-01-30T04:14:41.296Z,20.53
2023-01-30T04:17:08.081Z,26.10
2023-01-30T04:19:34.832Z,18.77
2023-01-30T04:22:01.654Z,12.07
2023-01-30T04:24:28.318Z,15.17
2023-01-30T04:26:55.096Z,26.23
2023-01-30T04:29:21.975Z,17.07
2023-01-30T04:31:48.760Z,21.10
2023-01-30T04:34:15.625Z,33.10
2023-01-30T04:36:42.384Z,23.40
2023-01-30T04:39:09.085Z,26.40
2023-01-30T04:41:35.973Z,19.73
2023-01-30T04:44:03.152Z,22.43
2023-01-30T04:46:30.471Z,18.67
2023-01-30T04:48:57.213Z,28.47
2023-01-30T04:51:23.948Z,25.07
2023-01-30T04:53:50.680Z,27.30
2023-01-30T04:56:17.904Z,23.83
2023-01-30T04:58:44.760Z,34.10
2023-01-30T05:01:47.077Z,23.67
2023-01-30T05:04:13.789Z,23.17
2023-01-30T05:06:40.620Z,24.87
2023-01-30T05:09:07.833Z,22.80
2023-01-30T05:11:36.572Z,18.90
2023-01-30T05:14:03.435Z,27.43
2023-01-30T05:16:30.251Z,21.80
2023-01-30T05:18:57.021Z,23.97
2023-01-30T05:21:30.356Z,24.30
2023-01-30T05:24:00.695Z,20.37
2023-01-30T05:26:27.599Z,20.73
2023-01-30T05:28:57.188Z,26.57
2023-01-30T05:31:24.116Z,26.40
2023-01-30T05:33:52.549Z,23.67
2023-01-30T05:36:21.421Z,23.00
2023-01-30T05:38:48.127Z,30.53
2023-01-30T05:41:16.449Z,29.90
2023-01-30T05:43:43.375Z,22.57
2023-01-30T05:46:12.227Z,26.40
2023-01-30T05:48:39.108Z,23.00
2023-01-30T05:51:06.341Z,28.70
2023-01-30T05:53:35.131Z,36.40
2023-01-30T05:56:05.488Z,18.17
2023-01-30T05:58:33.297Z,22.43
2023-01-30T06:01:05.934Z,38.03
2023-01-30T06:03:33.103Z,24.83
2023-01-30T06:06:01.887Z,24.43
2023-01-30T06:08:28.771Z,18.13
2023-01-30T06:10:55.415Z,28.03
2023-01-30T06:13:22.088Z,30.27
2023-01-30T06:15:48.791Z,29.80
2023-01-30T06:18:15.587Z,22.27
2023-01-30T06:20:47.451Z,28.80
2023-01-30T06:23:14.121Z,20.70
2023-01-30T06:25:44.813Z,22.73
2023-01-30T06:28:12.489Z,34.33
2023-01-30T06:30:39.335Z,23.63
2023-01-30T06:33:06.709Z,22.53
2023-01-30T06:35:33.727Z,27.60
2023-01-30T06:38:00.394Z,32.70
2023-01-30T06:40:27.034Z,29.13
2023-01-30T06:42:53.714Z,32.17
2023-01-30T06:45:20.868Z,32.50
2023-01-30T06:47:49.476Z,27.67
2023-01-30T06:50:18.036Z,30.53
2023-01-30T06:52:46.537Z,26.07
2023-01-30T06:55:19.982Z,22.87
2023-01-30T06:57:47.507Z,31.47
2023-01-30T07:00:17.730Z,28.47
2023-01-30T07:02:45.242Z,24.07
2023-01-30T07:05:12.623Z,24.63
2023-01-30T07:07:39.868Z,18.27
2023-01-30T07:10:09.080Z,25.07
2023-01-30T07:12:36.990Z,28.73
2023-01-30T07:15:05.472Z,34.57
2023-01-30T07:17:33.171Z,26.83
2023-01-30T07:19:59.870Z,27.93
2023-01-30T07:22:30.677Z,38.97
2023-01-30T07:24:57.360Z,22.80
2023-01-30T07:27:24.040Z,27.20
2023-01-30T07:29:52.467Z,29.77
2023-01-30T07:32:20.126Z,24.10
2023-01-30T07:34:47.355Z,23.53
2023-01-30T07:37:14.579Z,26.10
2023-01-30T07:39:41.845Z,24.97
2023-01-30T07:42:08.675Z,25.63
2023-01-30T07:44:35.357Z,33.43
2023-01-30T07:47:02.230Z,36.87
2023-01-30T07:49:29.186Z,27.57
2023-01-30T07:51:56.044Z,39.40
2023-01-30T07:54:23.091Z,32.63
2023-01-30T07:56:49.911Z,23.90
2023-01-30T07:59:16.625Z,26.70
2023-01-30T08:01:43.531Z,23.47
2023-01-30T08:04:10.285Z,30.33
2023-01-30T08:06:39.357Z,29.17
2023-01-30T08:09:06.965Z,37.37
2023-01-30T08:11:34.395Z,29.20
2023-01-30T08:14:01.601Z,26.40
2023-01-30T08:16:28.328Z,36.47
2023-01-30T08:18:55.052Z,30.83
2023-01-30T08:21:21.721Z,26.70
2023-01-30T08:23:48.472Z,33.43
2023-01-30T08:26:15.419Z,34.57
2023-01-30T08:28:42.425Z,21.73
2023-01-30T08:31:11.769Z,35.37
2023-01-30T08:33:42.165Z,31.27
2023-01-30T08:36:09.375Z,26.27
2023-01-30T08:38:38.669Z,32.27
2023-01-30T08:41:08.303Z,31.33
2023-01-30T08:43:35.204Z,28.20
2023-01-30T08:46:02.201Z,24.27
2023-01-30T08:48:36.744Z,24.40
2023-01-30T08:51:07.390Z,19.30
2023-01-30T08:53:34.200Z,21.00
2023-01-30T08:56:01.002Z,21.07
2023-01-30T08:58:27.919Z,21.80
2023-01-30T09:00:54.682Z,15.67
2023-01-30T09:03:21.430Z,22.50
2023-01-30T09:05:53.762Z,19.33
2023-01-30T09:08:20.492Z,22.53
2023-01-30T09:10:47.549Z,26.60
2023-01-30T09:13:14.241Z,32.83
2023-01-30T09:15:44.259Z,34.33
2023-01-30T09:18:10.936Z,20.37
2023-01-30T09:20:38.969Z,21.43
2023-01-30T09:23:05.691Z,29.50
2023-01-30T09:25:32.369Z,21.20
2023-01-30T09:27:59.906Z,23.10
2023-01-30T09:30:26.895Z,28.37
2023-01-30T09:32:53.659Z,39.90
2023-01-30T09:35:20.326Z,24.73
2023-01-30T09:37:48.827Z,20.43
2023-01-30T09:40:18.781Z,25.93
2023-01-30T09:43:08.667Z,28.70
2023-01-30T09:45:55.192Z,26.03
2023-01-30T09:48:32.402Z,20.27
2023-01-30T09:51:28.208Z,22.27
2023-01-30T09:54:11.195Z,24.67
2023-01-30T09:56:38.082Z,18.87
2023-01-30T09:59:06.867Z,12.13
2023-01-30T10:01:52.145Z,13.47
2023-01-30T10:04:59.974Z,17.20
2023-01-30T10:08:19.891Z,19.40
2023-01-30T10:11:09.574Z,17.40
2023-01-30T10:13:46.056Z,24.13
2023-01-30T10:16:39.655Z,26.13
2023-01-30T10:19:34.811Z,20.17
2023-01-30T10:22:17.629Z,15.23
2023-01-30T10:25:03.263Z,22.03
2023-01-30T10:27:33.200Z,16.53
2023-01-30T10:30:04.010Z,21.13
2023-01-30T10:33:04.139Z,24.17
2023-01-30T10:35:42.619Z,13.63
2023-01-30T10:38:21.790Z,10.73
2023-01-30T10:41:00.512Z,21.03
2023-01-30T10:43:59.470Z,18.90
2023-01-30T10:46:54.510Z,18.13
2023-01-30T10:49:43.885Z,16.27
2023-01-30T10:52:28.875Z,20.73
2023-01-30T10:55:38.048Z,15.50
2023-01-30T10:58:23.561Z,15.13
2023-01-30T11:01:01.218Z,11.17
2023-01-30T11:03:45.502Z,12.63
2023-01-30T11:06:17.375Z,18.77
2023-01-30T11:08:45.275Z,20.37
2023-01-30T11:11:30.393Z,14.30
2023-01-30T11:14:08.166Z,13.77
2023-01-30T11:16:43.425Z,8.93
2023-01-30T11:19:20.772Z,15.70
2023-01-30T11:21:54.966Z,15.57
2023-01-30T11:24:31.211Z,15.13
2023-01-30T11:27:17.706Z,11.00
2023-01-30T11:29:44.712Z,9.00
2023-01-30T11:32:15.867Z,10.50
2023-01-30T11:34:44.050Z,7.43
2023-01-30T11:37:23.077Z,8.70
2023-01-30T11:39:53.343Z,13.13
2023-01-30T11:42:30.968Z,11.90
2023-01-30T11:45:17.101Z,18.90
2023-01-30T11:48:05.169Z,16.90
2023-01-30T11:50:45.374Z,19.43
2023-01-30T11:53:30.054Z,13.97
2023-01-30T11:56:06.362Z,14.47
2023-01-30T11:58:38.759Z,17.60
2023-01-30T12:01:08.192Z,11.43
2023-01-30T12:03:44.857Z,14.03
2023-01-30T12:06:11.709Z,13.67
2023-01-30T12:08:42.750Z,13.33
2023-01-30T12:11:42.413Z,18.23
2023-01-30T12:14:41.820Z,17.13
2023-01-30T12:17:19.610Z,7.73
2023-01-30T12:20:44.541Z,16.60
2023-01-30T12:23:17.506Z,15.80
2023-01-30T12:25:59.950Z,15.63
2023-01-30T12:28:41.175Z,16.13
2023-01-30T12:31:30.149Z,16.80
2023-01-30T12:33:57.118Z,13.10
2023-01-30T12:36:26.682Z,23.63
2023-01-30T12:39:04.784Z,23.90
2023-01-30T12:41:56.161Z,12.27
2023-01-30T12:44:58.488Z,22.17
2023-01-30T12:47:28.222Z,13.17
2023-01-30T12:50:05.566Z,15.87
2023-01-30T12:52:57.539Z,14.90
2023-01-30T12:55:49.362Z,17.67
2023-01-30T12:58:34.952Z,14.03
2023-01-30T13:01:06.880Z,17.03
2023-01-30T13:03:51.131Z,15.67
2023-01-30T13:06:36.518Z,16.37
2023-01-30T13:09:09.798Z,13.03
2023-01-30T13:11:52.309Z,16.97
2023-01-30T13:14:30.874Z,4.50
2023-01-30T13:17:18.386Z,6.63
2023-01-30T13:20:16.955Z,7.20
2023-01-30T13:22:56.548Z,8.97
2023-01-30T13:25:31.414Z,5.27
2023-01-30T13:28:03.662Z,11.40
2023-01-30T13:30:34.184Z,10.47
2023-01-30T13:33:11.826Z,9.00
2023-01-30T13:35:46.661Z,12.87
2023-01-30T13:38:20.930Z,11.70
2023-01-30T13:40:49.907Z,15.57
2023-01-30T13:43:30.755Z,10.17
2023-01-30T13:46:03.492Z,17.47
2023-01-30T13:48:44.149Z,22.03
2023-01-30T13:51:25.333Z,17.87
2023-01-30T13:53:55.073Z,18.70
2023-01-30T13:56:46.089Z,38.03
2023-01-30T13:59:46.208Z,20.60
2023-01-30T14:02:18.609Z,14.53
2023-01-30T14:04:48.058Z,25.27
2023-01-30T14:07:23.248Z,21.40
2023-01-30T14:10:10.385Z,22.23
2023-01-30T14:12:52.634Z,20.10
2023-01-30T14:15:29.179Z,14.07
2023-01-30T14:18:07.489Z,16.77
2023-01-30T14:20:45.601Z,15.90
2023-01-30T14:23:34.772Z,21.20
2023-01-30T14:26:02.141Z,15.47
2023-01-30T14:28:28.857Z,19.60
2023-01-30T14:31:03.483Z,17.93
2023-01-30T14:33:47.803Z,22.17
2023-01-30T14:36:14.393Z,20.03
2023-01-30T14:38:42.036Z,31.17
2023-01-30T14:41:23.972Z,27.37
2023-01-30T14:43:53.489Z,24.33
2023-01-30T14:46:20.482Z,30.33
2023-01-30T14:49:24.943Z,26.50
2023-01-30T14:51:53.641Z,26.73
2023-01-30T14:54:36.574Z,25.47
2023-01-30T14:57:33.011Z,30.50
2023-01-30T15:00:18.764Z,23.70
2023-01-30T15:02:56.811Z,30.10
2023-01-30T15:05:30.829Z,25.13
2023-01-30T15:08:20.986Z,31.77
2023-01-30T15:10:56.628Z,28.57
2023-01-30T15:13:58.469Z,28.20
2023-01-30T15:17:05.634Z,22.80
2023-01-30T15:19:49.416Z,22.83
2023-01-30T15:22:28.495Z,32.20
2023-01-30T15:25:34.625Z,24.30
2023-01-30T15:28:12.337Z,39.53
2023-01-30T15:31:24.307Z,35.03
2023-01-30T15:33:53.255Z,35.73
2023-01-30T15:36:28.196Z,28.90
2023-01-30T15:39:05.269Z,38.93
2023-01-30T15:41:40.443Z,34.97
2023-01-30T15:44:23.783Z,24.33
2023-01-30T15:46:57.484Z,30.27
2023-01-30T15:49:42.742Z,35.17
2023-01-30T15:52:17.544Z,28.90
2023-01-30T15:54:53.422Z,28.17
2023-01-30T15:57:32.803Z,37.60
2023-01-30T16:00:00.614Z,30.23
2023-01-30T16:02:34.815Z,30.53
2023-01-30T16:05:05.871Z,30.67
2023-01-30T16:07:33.266Z,26.67
2023-01-30T16:10:07.589Z,28.73
2023-01-30T16:12:36.493Z,26.97
2023-01-30T16:15:18.391Z,27.70
2023-01-30T16:17:55.461Z,18.77
2023-01-30T16:20:22.381Z,23.47
2023-01-30T16:22:49.260Z,24.53
2023-01-30T16:25:22.139Z,24.80
2023-01-30T16:27:51.623Z,26.40
2023-01-30T16:30:24.668Z,24.07
2023-01-30T16:32:54.292Z,31.03
2023-01-30T16:35:27.156Z,24.10
2023-01-30T16:37:56.948Z,17.73
2023-01-30T16:40:26.795Z,27.13
2023-01-30T16:43:02.659Z,23.10
2023-01-30T16:45:35.635Z,27.33
2023-01-30T16:48:18.329Z,29.53
2023-01-30T16:50:48.157Z,26.90
2023-01-30T16:53:18.608Z,25.20
2023-01-30T16:56:08.357Z,21.73
2023-01-30T16:58:36.902Z,17.80
2023-01-30T17:01:08.480Z,25.57
2023-01-30T17:03:43.626Z,24.80
2023-01-30T17:06:24.264Z,19.60
2023-01-30T17:08:57.760Z,22.50
2023-01-30T17:11:38.702Z,16.03
2023-01-30T17:14:14.735Z,20.00
2023-01-30T17:16:43.222Z,14.83
2023-01-30T17:19:10.306Z,16.57
2023-01-30T17:21:59.454Z,18.87
2023-01-30T17:24:27.223Z,12.77
2023-01-30T17:26:59.235Z,13.20
2023-01-30T17:29:42.023Z,19.20
2023-01-30T17:32:13.433Z,18.90
2023-01-30T17:34:41.382Z,13.73
2023-01-30T17:37:21.349Z,18.53
2023-01-30T17:39:48.477Z,16.47
2023-01-30T17:42:17.975Z,21.07
2023-01-30T17:44:44.791Z,17.90
2023-01-30T17:47:12.740Z,18.23
2023-01-30T17:49:39.940Z,23.57
2023-01-30T17:52:07.380Z,25.10
2023-01-30T17:54:34.131Z,26.33
2023-01-30T17:57:06.499Z,32.57
2023-01-30T17:59:33.493Z,16.47
2023-01-30T18:02:00.472Z,16.27
2023-01-30T18:04:30.391Z,17.87
2023-01-30T18:07:04.364Z,19.27
2023-01-30T18:09:31.842Z,13.50
2023-01-30T18:11:58.704Z,19.77
2023-01-30T18:14:25.453Z,19.33
2023-01-30T18:16:53.194Z,15.57
2023-01-30T18:19:24.108Z,25.30
2023-01-30T18:21:51.058Z,21.90
2023-01-30T18:24:18.449Z,22.57
2023-01-30T18:26:45.980Z,17.43
2023-01-30T18:29:13.341Z,30.17
2023-01-30T18:31:40.488Z,28.10
2023-01-30T18:34:07.743Z,28.10
2023-01-30T18:36:36.019Z,28.07
2023-01-30T18:39:04.372Z,18.13
2023-01-30T18:41:35.531Z,36.40
2023-01-30T18:44:05.797Z,30.67
2023-01-30T18:46:33.580Z,17.50
2023-01-30T18:49:00.631Z,25.77
2023-01-30T18:51:33.966Z,20.80
2023-01-30T18:54:01.405Z,18.43
2023-01-30T18:56:33.234Z,25.40
2023-01-30T18:59:05.346Z,19.53
2023-01-30T19:01:38.697Z,23.23
2023-01-30T19:04:08.274Z,15.03
2023-01-30T19:06:41.206Z,17.20
2023-01-30T19:09:13.874Z,19.63
2023-01-30T19:11:59.093Z,15.57
2023-01-30T19:14:25.803Z,20.27
2023-01-30T19:16:52.651Z,18.37
2023-01-30T19:19:19.382Z,14.17
2023-01-30T19:21:46.129Z,15.80
2023-01-30T19:24:15.386Z,21.10
2023-01-30T19:26:42.182Z,18.87
2023-01-30T19:29:09.548Z,13.07
2023-01-30T19:31:36.377Z,23.30
2023-01-30T19:34:06.907Z,25.33
2023-01-30T19:36:36.061Z,20.77
2023-01-30T19:39:04.278Z,20.57
2023-01-30T19:41:33.855Z,28.20
2023-01-30T19:44:02.453Z,19.07
2023-01-30T19:46:29.808Z,23.10
2023-01-30T19:48:57.016Z,17.80
2023-01-30T19:51:26.887Z,16.93
2023-01-30T19:53:58.605Z,19.10
2023-01-30T19:56:27.195Z,24.70
2023-01-30T19:58:56.091Z,19.47
2023-01-30T20:01:24.552Z,24.17
2023-01-30T20:03:51.316Z,25.47
2023-01-30T20:06:26.720Z,24.00
2023-01-30T20:09:03.848Z,24.37
2023-01-30T20:11:31.590Z,24.77
2023-01-30T20:13:59.890Z,17.57
2023-01-30T20:16:29.465Z,18.77
2023-01-30T20:18:58.640Z,29.13
2023-01-30T20:21:26.398Z,21.23
2023-01-30T20:23:54.060Z,33.37
2023-01-30T20:26:26.508Z,15.70
2023-01-30T20:28:57.298Z,18.23
2023-01-30T20:31:26.293Z,25.17
2023-01-30T20:33:55.789Z,17.10
2023-01-30T20:36:23.185Z,21.97
2023-01-30T20:38:50.950Z,23.43
2023-01-30T20:41:24.902Z,27.27
2023-01-30T20:43:54.475Z,27.17
2023-01-30T20:46:23.604Z,23.10
2023-01-30T20:48:54.141Z,22.40
2023-01-30T20:51:24.481Z,25.93
2023-01-30T20:53:57.025Z,22.23
2023-01-30T20:56:25.987Z,16.40
2023-01-30T20:58:53.346Z,17.53
2023-01-30T21:01:23.595Z,13.60
2023-01-30T21:03:52.380Z,21.70
2023-01-30T21:06:41.263Z,16.80
2023-01-30T21:09:11.307Z,16.37
2023-01-30T21:11:39.340Z,17.13
2023-01-30T21:14:06.590Z,19.53
2023-01-30T21:16:35.577Z,17.90
2023-01-30T21:19:06.427Z,14.50
2023-01-30T21:21:36.912Z,22.13
2023-01-30T21:24:09.382Z,15.50
2023-01-30T21:26:38.307Z,17.57
2023-01-30T21:29:06.819Z,18.57
2023-01-30T21:31:35.979Z,16.00
2023-01-30T21:34:03.286Z,21.90
2023-01-30T21:36:30.105Z,16.03
2023-01-30T21:39:15.383Z,19.20
2023-01-30T21:42:02.744Z,15.67
2023-01-30T21:44:37.688Z,22.63
2023-01-30T21:47:06.338Z,19.73
2023-01-30T21:49:34.070Z,22.70
2023-01-30T21:52:00.885Z,13.97
2023-01-30T21:54:27.979Z,27.67
2023-01-30T21:56:54.676Z,13.37
2023-01-30T21:59:21.376Z,29.30
2023-01-30T22:01:48.703Z,18.77
2023-01-30T22:04:15.941Z,20.30
2023-01-30T22:06:43.674Z,21.23
2023-01-30T22:09:14.166Z,16.60
2023-01-30T22:11:41.333Z,17.93
2023-01-30T22:14:08.109Z,27.47
2023-01-30T22:16:34.900Z,15.17
2023-01-30T22:19:04.562Z,18.20
2023-01-30T22:21:37.478Z,17.47
2023-01-30T22:24:07.457Z,20.33
2023-01-30T22:26:34.652Z,20.80
2023-01-30T22:29:06.605Z,24.40
2023-01-30T22:31:36.329Z,33.33
2023-01-30T22:34:05.987Z,22.77
2023-01-30T22:36:33.995Z,25.50
2023-01-30T22:39:01.908Z,9.80
2023-01-30T22:41:32.868Z,13.00
2023-01-30T22:44:00.477Z,16.33
2023-01-30T22:46:37.395Z,14.40
2023-01-30T22:49:06.449Z,24.20
2023-01-30T22:51:40.867Z,16.50
2023-01-30T22:54:16.053Z,11.10
2023-01-30T22:56:45.702Z,14.27
2023-01-30T22:59:15.460Z,18.77
2023-01-30T23:01:44.955Z,14.20
2023-01-30T23:04:18.084Z,15.10
2023-01-30T23:06:48.564Z,13.50
2023-01-30T23:09:21.457Z,11.63
2023-01-30T23:12:15.546Z,18.93
2023-01-30T23:14:42.983Z,12.23
2023-01-30T23:17:28.883Z,12.40
2023-01-30T23:19:56.657Z,13.67
2023-01-30T23:22:24.063Z,11.33
2023-01-30T23:24:51.567Z,10.83
2023-01-30T23:27:19.927Z,14.53
2023-01-30T23:29:46.855Z,9.30
2023-01-30T23:32:14.929Z,15.33
2023-01-30T23:34:41.700Z,11.17
2023-01-30T23:37:10.928Z,16.30
2023-01-30T23:39:37.753Z,11.87
2023-01-30T23:42:27.035Z,13.77
2023-01-30T23:44:53.871Z,14.60
2023-01-30T23:47:20.700Z,13.37
2023-01-30T23:49:47.553Z,12.47
2023-01-30T23:52:14.488Z,19.07
2023-01-30T23:54:42.311Z,11.07
2023-01-30T23:57:09.070Z,15.07
2023-01-30T23:59:38.784Z,12.70
